createdAt,value
2018-02-12T00:02:22.455Z,91.00
2018-02-12T00:04:53.485Z,91.00
2018-02-12T00:07:27.307Z,91.00
2018-02-12T00:09:55.734Z,91.00
2018-02-12T00:12:24.046Z,90.80
2018-02-12T00:14:52.589Z,90.80
2018-02-12T00:17:20.911Z,90.80
2018-02-12T00:19:49.353Z,90.90
2018-02-12T00:22:17.779Z,90.70
2018-02-12T00:24:46.134Z,90.80
2018-02-12T00:27:17.872Z,90.70
2018-02-12T00:29:46.656Z,90.90
2018-02-12T00:32:15.071Z,91.00
2018-02-12T00:34:43.496Z,91.20
2018-02-12T00:37:12.594Z,91.30
2018-02-12T00:39:40.902Z,91.30
2018-02-12T00:42:09.367Z,91.40
2018-02-12T00:44:37.637Z,91.30
2018-02-12T00:47:05.912Z,91.30
2018-02-12T00:49:34.237Z,91.40
2018-02-12T00:52:02.758Z,91.60
2018-02-12T00:54:31.206Z,91.60
2018-02-12T00:56:59.531Z,91.60
2018-02-12T00:59:27.845Z,91.50
2018-02-12T01:01:58.729Z,91.50
2018-02-12T01:04:27.105Z,91.50
2018-02-12T01:06:55.385Z,91.50
2018-02-12T01:09:23.773Z,91.60
2018-02-12T01:11:53.838Z,91.80
2018-02-12T01:14:23.814Z,91.80
2018-02-12T01:16:52.314Z,91.80
2018-02-12T01:19:20.602Z,91.80
2018-02-12T01:21:48.969Z,91.90
2018-02-12T01:24:17.377Z,91.90
2018-02-12T01:26:45.722Z,91.80
2018-02-12T01:29:15.848Z,91.60
2018-02-12T01:31:44.310Z,91.60
2018-02-12T01:34:13.509Z,91.30
2018-02-12T01:36:42.661Z,91.00
2018-02-12T01:39:11.411Z,90.90
2018-02-12T01:41:39.690Z,90.90
2018-02-12T01:44:08.071Z,91.00
2018-02-12T01:46:36.344Z,91.00
2018-02-12T01:49:04.711Z,91.00
2018-02-12T01:51:34.131Z,90.30
2018-02-12T01:54:02.518Z,90.20
2018-02-12T01:56:30.863Z,90.60
2018-02-12T01:58:59.358Z,90.80
2018-02-12T02:01:27.952Z,90.80
2018-02-12T02:03:56.290Z,90.90
2018-02-12T02:06:24.664Z,91.00
2018-02-12T02:08:53.056Z,91.10
2018-02-12T02:11:22.258Z,91.10
2018-02-12T02:13:51.551Z,91.10
2018-02-12T02:16:19.955Z,91.10
2018-02-12T02:18:48.389Z,91.00
2018-02-12T02:21:16.738Z,91.00
2018-02-12T02:23:45.369Z,91.00
2018-02-12T02:26:14.562Z,90.90
2018-02-12T02:28:43.907Z,91.00
2018-02-12T02:31:12.489Z,91.00
2018-02-12T02:33:40.970Z,91.10
2018-02-12T02:36:09.705Z,91.60
2018-02-12T02:38:38.363Z,91.90
2018-02-12T02:41:07.680Z,92.30
2018-02-12T02:43:35.943Z,92.50
2018-02-12T02:46:04.338Z,92.70
2018-02-12T02:48:32.733Z,92.90
2018-02-12T02:51:01.995Z,92.80
2018-02-12T02:53:30.466Z,92.80
2018-02-12T02:55:58.859Z,92.90
2018-02-12T02:58:28.646Z,92.80
2018-02-12T03:00:57.402Z,92.90
2018-02-12T03:03:25.850Z,93.00
2018-02-12T03:05:54.150Z,93.00
2018-02-12T03:08:23.348Z,93.00
2018-02-12T03:10:51.939Z,93.00
2018-02-12T03:13:21.170Z,93.00
2018-02-12T03:15:49.813Z,93.00
2018-02-12T03:18:18.187Z,93.10
2018-02-12T03:20:47.247Z,93.10
2018-02-12T03:23:15.574Z,93.10
2018-02-12T03:25:44.653Z,93.10
2018-02-12T03:28:13.889Z,93.00
2018-02-12T03:30:42.458Z,93.00
2018-02-12T03:33:10.948Z,93.10
2018-02-12T03:35:39.675Z,93.20
2018-02-12T03:38:09.354Z,93.10
2018-02-12T03:40:37.894Z,93.10
2018-02-12T03:43:06.816Z,93.00
2018-02-12T03:45:40.568Z,93.00
2018-02-12T03:50:45.433Z,93.00
2018-02-12T03:53:15.314Z,93.00
2018-02-12T03:55:43.793Z,92.90
2018-02-12T03:58:12.373Z,92.90
2018-02-12T04:00:43.051Z,92.90
2018-02-12T04:03:11.116Z,92.80
2018-02-12T04:05:41.357Z,92.80
2018-02-12T04:08:11.215Z,92.60
2018-02-12T04:10:39.068Z,92.50
2018-02-12T04:13:08.049Z,92.40
2018-02-12T04:15:40.614Z,92.40
2018-02-12T04:18:09.617Z,92.30
2018-02-12T04:20:37.606Z,92.20
2018-02-12T04:23:05.614Z,91.90
2018-02-12T04:25:39.755Z,91.80
2018-02-12T04:28:09.444Z,91.80
2018-02-12T04:30:38.075Z,91.80
2018-02-12T04:33:07.642Z,91.80
2018-02-12T04:35:36.134Z,91.60
2018-02-12T04:38:06.147Z,91.70
2018-02-12T04:40:34.028Z,91.70
2018-02-12T04:43:02.307Z,91.80
2018-02-12T04:45:30.791Z,91.50
2018-02-12T04:48:00.776Z,91.40
2018-02-12T04:50:30.141Z,91.40
2018-02-12T04:52:58.373Z,91.40
2018-02-12T04:55:26.526Z,91.50
2018-02-12T04:57:54.413Z,91.90
2018-02-12T05:00:22.342Z,91.60
2018-02-12T05:02:50.558Z,91.60
2018-02-12T05:05:18.470Z,91.60
2018-02-12T05:07:46.376Z,91.40
2018-02-12T05:10:14.288Z,91.40
2018-02-12T05:13:09.872Z,91.40
2018-02-12T05:15:37.942Z,91.20
2018-02-12T05:18:05.870Z,91.10
2018-02-12T05:20:33.908Z,91.00
2018-02-12T05:23:02.055Z,91.20
2018-02-12T05:25:30.030Z,91.00
2018-02-12T05:27:57.921Z,91.00
2018-02-12T05:30:25.934Z,91.20
2018-02-12T05:32:54.576Z,91.10
2018-02-12T05:35:22.793Z,91.10
2018-02-12T05:37:51.987Z,91.10
2018-02-12T05:40:20.671Z,91.20
2018-02-12T05:42:48.640Z,91.20
2018-02-12T05:45:17.326Z,91.20
2018-02-12T05:47:45.327Z,91.20
2018-02-12T05:50:13.562Z,91.10
2018-02-12T05:52:41.632Z,91.20
2018-02-12T05:55:09.487Z,90.90
2018-02-12T05:57:37.526Z,91.00
2018-02-12T06:00:05.534Z,90.80
2018-02-12T06:02:33.491Z,91.00
2018-02-12T06:05:01.760Z,91.00
2018-02-12T06:07:29.656Z,91.00
2018-02-12T06:09:58.391Z,91.30
2018-02-12T06:12:26.258Z,91.30
2018-02-12T06:14:54.480Z,91.10
2018-02-12T06:17:24.556Z,91.50
2018-02-12T06:19:52.541Z,91.50
2018-02-12T06:22:22.714Z,91.70
2018-02-12T06:24:50.633Z,91.80
2018-02-12T06:27:18.558Z,91.90
2018-02-12T06:29:46.670Z,92.10
2018-02-12T06:32:14.870Z,92.20
2018-02-12T06:34:43.499Z,92.30
2018-02-12T06:37:11.754Z,92.30
2018-02-12T06:39:39.694Z,92.50
2018-02-12T06:42:07.737Z,92.30
2018-02-12T06:44:35.706Z,92.10
2018-02-12T06:47:03.655Z,92.00
2018-02-12T06:49:31.758Z,91.80
2018-02-12T06:51:59.746Z,91.70
2018-02-12T06:54:28.410Z,90.70
2018-02-12T06:56:56.411Z,90.80
2018-02-12T06:59:24.346Z,90.60
2018-02-12T07:01:52.753Z,90.50
2018-02-12T07:04:21.480Z,90.70
2018-02-12T07:06:49.636Z,90.70
2018-02-12T07:09:17.567Z,90.80
2018-02-12T07:11:46.213Z,89.80
2018-02-12T07:14:14.132Z,89.80
2018-02-12T07:16:43.294Z,89.50
2018-02-12T07:19:11.606Z,89.50
2018-02-12T07:21:39.929Z,89.90
2018-02-12T07:24:07.999Z,89.50
2018-02-12T07:26:35.973Z,89.40
2018-02-12T07:29:03.962Z,89.80
2018-02-12T07:31:32.241Z,89.80
2018-02-12T07:34:00.155Z,90.00
2018-02-12T07:36:28.242Z,88.80
2018-02-12T07:38:57.270Z,88.90
2018-02-12T07:41:25.318Z,88.40
2018-02-12T07:43:53.566Z,88.10
2018-02-12T07:46:21.684Z,88.10
2018-02-12T07:48:49.578Z,88.10
2018-02-12T07:51:17.558Z,87.80
2018-02-12T07:53:45.558Z,88.30
2018-02-12T07:56:13.842Z,88.90
2018-02-12T07:58:42.158Z,89.10
2018-02-12T08:01:11.496Z,88.80
2018-02-12T08:03:39.591Z,88.80
2018-02-12T08:06:10.491Z,89.20
2018-02-12T08:08:39.380Z,89.30
2018-02-12T08:11:07.382Z,89.30
2018-02-12T08:13:35.403Z,90.00
2018-02-12T08:16:04.166Z,89.90
2018-02-12T08:18:32.372Z,89.90
2018-02-12T08:21:00.311Z,89.80
2018-02-12T08:23:29.449Z,88.90
2018-02-12T08:25:58.956Z,89.40
2018-02-12T08:28:27.779Z,88.40
2018-02-12T08:30:55.888Z,88.40
2018-02-12T08:33:23.792Z,88.30
2018-02-12T08:35:52.010Z,87.60
2018-02-12T08:38:20.462Z,87.40
2018-02-12T08:40:48.819Z,87.10
2018-02-12T08:43:16.913Z,87.60
2018-02-12T08:45:44.858Z,87.00
2018-02-12T08:48:13.035Z,85.70
2018-02-12T08:50:41.235Z,83.70
2018-02-12T08:53:09.842Z,83.80
2018-02-12T08:55:37.979Z,83.30
2018-02-12T08:58:05.932Z,83.60
2018-02-12T09:00:34.204Z,83.00
2018-02-12T09:03:02.438Z,82.80
2018-02-12T09:05:31.398Z,83.40
2018-02-12T09:07:59.902Z,82.90
2018-02-12T09:10:27.959Z,83.00
2018-02-12T09:12:55.921Z,81.80
2018-02-12T09:15:23.975Z,82.00
2018-02-12T09:17:52.264Z,82.70
2018-02-12T09:20:21.187Z,81.70
2018-02-12T09:22:49.319Z,81.40
2018-02-12T09:25:17.774Z,81.60
2018-02-12T09:27:46.172Z,81.10
2018-02-12T09:30:14.883Z,79.90
2018-02-12T09:32:44.079Z,79.90
2018-02-12T09:35:12.416Z,78.90
2018-02-12T09:37:41.090Z,78.40
2018-02-12T09:40:09.701Z,78.10
2018-02-12T09:42:38.155Z,78.90
2018-02-12T09:45:06.112Z,79.30
2018-02-12T09:47:35.228Z,79.60
2018-02-12T09:50:04.078Z,79.90
2018-02-12T09:52:34.059Z,79.70
2018-02-12T09:55:02.389Z,79.70
2018-02-12T09:57:31.129Z,79.70
2018-02-12T09:59:59.142Z,79.60
2018-02-12T10:02:27.847Z,79.70
2018-02-12T10:04:55.837Z,79.60
2018-02-12T10:07:23.748Z,80.00
2018-02-12T10:09:52.173Z,79.30
2018-02-12T10:12:20.196Z,78.60
2018-02-12T10:14:48.313Z,79.10
2018-02-12T10:17:16.317Z,77.80
2018-02-12T10:19:44.487Z,78.50
2018-02-12T10:22:13.337Z,77.30
2018-02-12T10:24:41.297Z,77.20
2018-02-12T10:27:09.227Z,77.30
2018-02-12T10:29:37.446Z,77.40
2018-02-12T10:32:05.362Z,77.30
2018-02-12T10:34:33.382Z,75.70
2018-02-12T10:37:01.653Z,75.70
2018-02-12T10:39:29.678Z,76.60
2018-02-12T10:41:57.699Z,75.90
2018-02-12T10:44:25.641Z,74.60
2018-02-12T10:46:54.250Z,74.90
2018-02-12T10:49:22.319Z,74.90
2018-02-12T10:51:50.422Z,75.70
2018-02-12T10:54:18.318Z,75.20
2018-02-12T10:56:46.303Z,74.70
2018-02-12T10:59:15.128Z,74.60
2018-02-12T11:01:43.123Z,74.40
2018-02-12T11:04:12.003Z,74.80
2018-02-12T11:06:39.859Z,74.90
2018-02-12T11:09:07.775Z,75.10
2018-02-12T11:11:35.765Z,74.30
2018-02-12T11:14:03.711Z,74.80
2018-02-12T11:16:31.622Z,73.80
2018-02-12T11:18:59.527Z,72.90
2018-02-12T11:21:27.494Z,71.70
2018-02-12T11:23:56.272Z,70.70
2018-02-12T11:26:24.202Z,70.70
2018-02-12T11:28:52.274Z,70.30
2018-02-12T11:31:20.556Z,70.40
2018-02-12T11:33:49.368Z,70.10
2018-02-12T11:36:17.645Z,71.00
2018-02-12T11:38:45.508Z,69.90
2018-02-12T11:41:13.576Z,70.30
2018-02-12T11:43:41.563Z,69.10
2018-02-12T11:46:09.789Z,68.20
2018-02-12T11:48:38.132Z,68.80
2018-02-12T11:51:06.186Z,68.80
2018-02-12T11:53:34.421Z,70.10
2018-02-12T11:56:02.896Z,69.50
2018-02-12T11:58:31.130Z,69.20
2018-02-12T12:00:59.040Z,69.20
2018-02-12T12:03:27.245Z,69.60
2018-02-12T12:05:55.355Z,69.80
2018-02-12T12:08:24.073Z,69.20
2018-02-12T12:10:52.374Z,69.20
2018-02-12T12:13:21.654Z,67.70
2018-02-12T12:15:49.738Z,68.40
2018-02-12T12:18:17.994Z,66.50
2018-02-12T12:20:46.135Z,66.90
2018-02-12T12:23:15.151Z,67.70
2018-02-12T12:25:43.273Z,67.60
2018-02-12T12:28:11.506Z,66.30
2018-02-12T12:30:39.568Z,66.80
2018-02-12T12:33:07.740Z,65.30
2018-02-12T12:35:35.767Z,65.50
2018-02-12T12:38:03.831Z,64.50
2018-02-12T12:40:32.036Z,63.80
2018-02-12T12:43:00.655Z,65.60
2018-02-12T12:45:28.570Z,65.60
2018-02-12T12:47:56.505Z,65.10
2018-02-12T12:50:24.439Z,64.60
2018-02-12T12:52:52.419Z,65.30
2018-02-12T12:55:21.642Z,65.40
2018-02-12T12:57:49.845Z,65.40
2018-02-12T13:00:18.613Z,65.40
2018-02-12T13:02:46.732Z,65.40
2018-02-12T13:05:14.786Z,65.30
2018-02-12T13:07:43.578Z,66.50
2018-02-12T13:10:12.009Z,66.50
2018-02-12T13:12:41.182Z,68.00
2018-02-12T13:15:09.128Z,68.10
2018-02-12T13:17:37.429Z,68.50
2018-02-12T13:20:05.415Z,68.50
2018-02-12T13:22:33.385Z,69.00
2018-02-12T13:25:01.656Z,69.20
2018-02-12T13:27:29.487Z,69.90
2018-02-12T13:29:58.212Z,72.40
2018-02-12T13:32:26.254Z,72.40
2018-02-12T13:34:54.176Z,74.30
2018-02-12T13:37:22.300Z,75.20
2018-02-12T13:39:50.339Z,75.40
2018-02-12T13:42:20.475Z,75.50
2018-02-12T13:44:48.588Z,75.50
2018-02-12T13:47:16.679Z,75.20
2018-02-12T13:49:44.534Z,76.10
2018-02-12T13:52:12.552Z,75.80
2018-02-12T13:54:41.210Z,75.20
2018-02-12T13:57:09.252Z,75.10
2018-02-12T13:59:37.370Z,72.70
2018-02-12T14:02:05.290Z,70.30
2018-02-12T14:04:33.221Z,69.60
2018-02-12T14:07:01.563Z,69.70
2018-02-12T14:09:30.192Z,69.60
2018-02-12T14:11:58.085Z,69.40
2018-02-12T14:14:25.925Z,69.70
2018-02-12T14:16:53.922Z,69.50
2018-02-12T14:19:21.938Z,69.50
2018-02-12T14:21:51.076Z,69.10
2018-02-12T14:24:19.044Z,68.90
2018-02-12T14:26:46.926Z,68.90
2018-02-12T14:29:14.821Z,69.50
2018-02-12T14:31:42.887Z,71.70
2018-02-12T14:34:11.124Z,70.30
2018-02-12T14:36:39.733Z,72.40
2018-02-12T14:39:09.247Z,72.50
2018-02-12T14:41:37.425Z,72.40
2018-02-12T14:44:05.324Z,72.40
2018-02-12T14:46:34.248Z,71.50
2018-02-12T14:49:02.564Z,71.50
2018-02-12T14:51:30.575Z,71.70
2018-02-12T14:53:58.471Z,71.20
2018-02-12T14:56:26.381Z,71.60
2018-02-12T14:58:55.239Z,73.80
2018-02-12T15:01:23.222Z,73.70
2018-02-12T15:03:51.435Z,74.50
2018-02-12T15:06:20.021Z,76.40
2018-02-12T15:08:47.903Z,76.40
2018-02-12T15:11:16.163Z,76.20
2018-02-12T15:13:44.018Z,73.90
2018-02-12T15:16:12.118Z,73.60
2018-02-12T15:18:39.953Z,72.20
2018-02-12T15:21:07.976Z,72.00
2018-02-12T15:23:35.981Z,72.20
2018-02-12T15:26:03.962Z,73.20
2018-02-12T15:28:31.958Z,73.20
2018-02-12T15:31:00.003Z,73.60
2018-02-12T15:33:27.927Z,73.50
2018-02-12T15:35:55.884Z,74.00
2018-02-12T15:38:24.651Z,73.00
2018-02-12T15:40:53.042Z,73.00
2018-02-12T15:43:21.575Z,71.90
2018-02-12T15:45:50.500Z,71.80
2018-02-12T15:48:18.566Z,71.80
2018-02-12T15:50:46.587Z,72.00
2018-02-12T15:53:15.275Z,72.90
2018-02-12T15:55:43.297Z,72.80
2018-02-12T15:58:12.119Z,73.40
2018-02-12T16:00:40.127Z,73.30
2018-02-12T16:03:08.026Z,73.70
2018-02-12T16:05:35.993Z,74.00
2018-02-12T16:08:04.085Z,74.00
2018-02-12T16:10:32.156Z,74.20
2018-02-12T16:13:01.139Z,74.70
2018-02-12T16:15:29.273Z,74.70
2018-02-12T16:17:57.381Z,74.70
2018-02-12T16:20:25.656Z,75.20
2018-02-12T16:22:53.824Z,75.30
2018-02-12T16:25:23.230Z,75.40
2018-02-12T16:27:52.291Z,75.60
2018-02-12T16:30:20.333Z,75.60
2018-02-12T16:32:48.661Z,76.20
2018-02-12T16:35:17.772Z,76.80
2018-02-12T16:37:46.054Z,76.80
2018-02-12T16:40:14.221Z,77.10
2018-02-12T16:42:42.413Z,77.10
2018-02-12T16:45:10.531Z,77.50
2018-02-12T16:47:38.685Z,77.70
2018-02-12T16:50:07.636Z,78.00
2018-02-12T16:52:36.455Z,77.70
2018-02-12T16:55:05.246Z,77.60
2018-02-12T16:57:33.385Z,77.50
2018-02-12T17:00:01.411Z,78.10
2018-02-12T17:02:29.583Z,78.00
2018-02-12T17:04:57.724Z,77.90
2018-02-12T17:07:26.467Z,78.30
2018-02-12T17:09:55.371Z,78.30
2018-02-12T17:12:23.432Z,78.30
2018-02-12T17:14:51.841Z,78.90
2018-02-12T17:17:19.805Z,79.00
2018-02-12T17:19:47.767Z,79.30
2018-02-12T17:22:15.712Z,79.90
2018-02-12T17:24:43.788Z,80.00
2018-02-12T17:27:12.568Z,80.20
2018-02-12T17:29:40.758Z,80.40
2018-02-12T17:32:09.056Z,80.80
2018-02-12T17:34:37.320Z,81.40
2018-02-12T17:37:05.472Z,81.70
2018-02-12T17:39:33.722Z,82.00
2018-02-12T17:42:02.027Z,82.80
2018-02-12T17:44:30.128Z,82.90
2018-02-12T17:46:58.289Z,83.10
2018-02-12T17:49:26.253Z,83.70
2018-02-12T17:51:54.305Z,83.70
2018-02-12T17:54:22.290Z,84.00
2018-02-12T17:56:50.973Z,83.80
2018-02-12T17:59:18.961Z,83.80
2018-02-12T18:01:47.005Z,84.00
2018-02-12T18:04:15.804Z,84.30
2018-02-12T18:06:44.034Z,84.20
2018-02-12T18:09:12.145Z,84.20
2018-02-12T18:11:40.227Z,84.20
2018-02-12T18:14:08.248Z,84.00
2018-02-12T18:16:36.185Z,84.30
2018-02-12T18:19:04.942Z,84.80
2018-02-12T18:21:33.327Z,84.70
2018-02-12T18:24:01.379Z,84.80
2018-02-12T18:26:29.450Z,85.00
2018-02-12T18:28:57.496Z,85.00
2018-02-12T18:31:25.501Z,84.70
2018-02-12T18:33:53.409Z,84.90
2018-02-12T18:36:21.464Z,85.00
2018-02-12T18:38:49.821Z,85.30
2018-02-12T18:41:18.230Z,85.40
2018-02-12T18:43:46.315Z,85.60
2018-02-12T18:46:15.043Z,85.40
2018-02-12T18:48:43.780Z,85.50
2018-02-12T18:51:12.004Z,85.50
2018-02-12T18:53:40.791Z,85.50
2018-02-12T18:56:09.344Z,85.50
2018-02-12T18:58:37.287Z,85.60
2018-02-12T19:01:05.274Z,85.60
2018-02-12T19:03:33.481Z,85.50
2018-02-12T19:06:01.627Z,85.60
2018-02-12T19:08:29.839Z,85.60
2018-02-12T19:10:57.874Z,85.80
2018-02-12T19:13:25.842Z,86.00
2018-02-12T19:15:53.791Z,85.90
2018-02-12T19:18:22.225Z,86.00
2018-02-12T19:20:50.470Z,85.90
2018-02-12T19:23:18.458Z,85.70
2018-02-12T19:25:46.403Z,85.30
2018-02-12T19:28:15.190Z,85.60
2018-02-12T19:30:44.142Z,85.50
2018-02-12T19:33:12.277Z,85.50
2018-02-12T19:35:40.591Z,85.70
2018-02-12T19:38:09.391Z,85.40
2018-02-12T19:40:37.438Z,85.30
2018-02-12T19:43:05.786Z,85.70
2018-02-12T19:45:33.774Z,85.90
2018-02-12T19:48:01.844Z,86.20
2018-02-12T19:50:30.233Z,86.20
2018-02-12T19:52:59.509Z,86.30
2018-02-12T19:55:27.531Z,86.30
2018-02-12T19:57:56.408Z,86.10
2018-02-12T20:00:25.120Z,86.10
2018-02-12T20:02:53.789Z,86.30
2018-02-12T20:05:21.905Z,86.20
2018-02-12T20:07:50.240Z,86.50
2018-02-12T20:10:27.776Z,86.50
2018-02-12T20:12:58.006Z,86.20
2018-02-12T20:15:31.359Z,86.20
2018-02-12T20:17:59.820Z,86.30
2018-02-12T20:20:27.746Z,86.50
2018-02-12T20:22:57.838Z,86.60
2018-02-12T20:25:25.747Z,86.80
2018-02-12T20:27:53.796Z,86.70
2018-02-12T20:30:22.041Z,86.80
2018-02-12T20:32:51.218Z,87.00
2018-02-12T20:35:19.959Z,87.00
2018-02-12T20:37:48.722Z,87.00
2018-02-12T20:40:16.801Z,87.00
2018-02-12T20:42:44.826Z,87.10
2018-02-12T20:45:12.925Z,87.20
2018-02-12T20:47:41.144Z,86.90
2018-02-12T20:50:09.817Z,87.20
2018-02-12T20:52:37.829Z,87.20
2018-02-12T20:55:06.545Z,87.10
2018-02-12T20:57:34.689Z,87.00
2018-02-12T21:00:05.083Z,86.90
2018-02-12T21:02:33.335Z,86.90
2018-02-12T21:05:02.517Z,87.00
2018-02-12T21:07:30.659Z,86.90
2018-02-12T21:09:59.428Z,86.80
2018-02-12T21:12:27.432Z,86.80
2018-02-12T21:14:55.337Z,87.10
2018-02-12T21:17:24.074Z,86.80
2018-02-12T21:19:52.094Z,86.70
2018-02-12T21:22:20.435Z,87.00
2018-02-12T21:24:48.618Z,87.40
2018-02-12T21:27:16.607Z,87.50
2018-02-12T21:29:44.586Z,87.70
2018-02-12T21:32:12.885Z,87.80
2018-02-12T21:34:40.929Z,87.90
2018-02-12T21:37:08.842Z,87.90
2018-02-12T21:39:37.001Z,87.60
2018-02-12T21:42:04.937Z,87.60
2018-02-12T21:44:32.818Z,87.30
2018-02-12T21:47:00.849Z,87.30
2018-02-12T21:49:28.779Z,87.30
2018-02-12T21:51:57.463Z,87.30
2018-02-12T21:54:26.669Z,87.30
2018-02-12T21:56:54.586Z,87.30
2018-02-12T21:59:22.633Z,87.10
2018-02-12T22:01:50.674Z,87.00
2018-02-12T22:04:18.767Z,86.90
2018-02-12T22:06:46.681Z,87.00
2018-02-12T22:09:14.595Z,87.10
2018-02-12T22:11:42.831Z,87.00
2018-02-12T22:14:11.128Z,87.00
2018-02-12T22:16:39.835Z,87.10
2018-02-12T22:19:07.747Z,87.10
2018-02-12T22:21:35.842Z,86.80
2018-02-12T22:24:04.542Z,87.00
2018-02-12T22:26:33.171Z,87.10
2018-02-12T22:29:01.183Z,87.00
2018-02-12T22:31:29.838Z,86.70
2018-02-12T22:33:57.799Z,86.60
2018-02-12T22:36:26.472Z,87.20
2018-02-12T22:38:54.295Z,86.60
2018-02-12T22:41:23.086Z,86.80
2018-02-12T22:43:52.147Z,86.70
2018-02-12T22:46:20.013Z,86.70
2018-02-12T22:48:47.879Z,86.70
2018-02-12T22:51:15.927Z,86.80
2018-02-12T22:53:43.903Z,86.60
2018-02-12T22:56:11.886Z,86.30
2018-02-12T22:58:39.779Z,86.10
2018-02-12T23:01:08.496Z,86.20
2018-02-12T23:03:36.391Z,86.20
2018-02-12T23:06:04.362Z,86.40
2018-02-12T23:08:32.288Z,86.20
2018-02-12T23:11:00.428Z,86.30
2018-02-12T23:13:28.411Z,86.10
2018-02-12T23:15:57.498Z,86.10
2018-02-12T23:18:25.354Z,85.90
2018-02-12T23:20:54.575Z,85.50
2018-02-12T23:23:23.207Z,85.60
2018-02-12T23:25:51.301Z,85.50
2018-02-12T23:28:19.223Z,85.60
2018-02-12T23:30:47.110Z,85.50
2018-02-12T23:33:15.077Z,85.50
2018-02-12T23:35:43.296Z,85.50
2018-02-12T23:38:25.791Z,85.60
2018-02-12T23:40:54.137Z,85.70
2018-02-12T23:43:22.524Z,85.60
2018-02-12T23:45:51.317Z,85.60
2018-02-12T23:48:19.355Z,85.50
2018-02-12T23:50:47.405Z,85.50
2018-02-12T23:53:16.388Z,85.50
2018-02-12T23:55:50.169Z,85.50
2018-02-12T23:58:21.511Z,85.70
